Beaver Cove, Canada
Current Conditions -  °F | °C
As of 8:00 AM on Friday 31 Oct 2014 (Local Time) from CYZT Reporting Station
Rain Showers Rain Showers  
Wind Chill: 41°   Ceiling: 5200
Heat Index: 41°   Visibility: 15mi
Dew Point: 41°   Wind: 3mph
Humidity: 100%   Direction: 250°WSW
Pressure: 29.73"   Gusts: NA
Location:  50.53°N, 126.87°W
Report Text: CYZT 311500Z 25003KT 15SM -SHRA FEW012 BKN052 BKN120 05/05 A2973 RMK SF1SC4AC2 SLP068
Loading
Personal Weather Stations






























Interactive Weather Map
Tropical Storm Tracking
New forecast layout! Learn more

10-Day Weather Forecast

Advertisements
Track Severe Weather on mobile